createdAt,value
2019-01-26T00:02:48.610Z,51.10
2019-01-26T00:05:53.532Z,51.30
2019-01-26T00:08:58.378Z,52.20
2019-01-26T00:12:03.255Z,51.90
2019-01-26T00:15:10.649Z,52.20
2019-01-26T00:18:15.521Z,52.80
2019-01-26T00:21:20.481Z,52.50
2019-01-26T00:24:25.462Z,53.20
2019-01-26T00:27:30.422Z,53.30
2019-01-26T00:30:35.345Z,53.00
2019-01-26T00:33:43.219Z,54.40
2019-01-26T00:36:46.753Z,54.00
2019-01-26T00:39:51.872Z,54.60
2019-01-26T00:42:56.794Z,55.20
2019-01-26T00:46:01.935Z,54.80
2019-01-26T00:49:06.862Z,55.60
2019-01-26T00:52:11.718Z,55.60
2019-01-26T00:55:16.579Z,55.60
2019-01-26T00:58:23.701Z,56.10
2019-01-26T01:01:27.954Z,56.90
2019-01-26T01:04:32.840Z,57.80
2019-01-26T01:07:37.796Z,58.30
2019-01-26T01:10:42.754Z,58.90
2019-01-26T01:13:47.666Z,59.00
2019-01-26T01:16:52.597Z,59.10
2019-01-26T01:19:57.429Z,59.40
2019-01-26T01:23:02.441Z,58.90
2019-01-26T01:26:07.330Z,59.60
2019-01-26T01:29:12.185Z,59.20
2019-01-26T01:32:17.990Z,59.80
2019-01-26T01:35:22.945Z,60.60
2019-01-26T01:38:27.796Z,60.60
2019-01-26T01:41:32.671Z,61.60
2019-01-26T01:44:37.580Z,62.30
2019-01-26T01:47:42.478Z,61.90
2019-01-26T01:50:47.396Z,63.80
2019-01-26T01:53:52.243Z,64.70
2019-01-26T01:56:57.126Z,64.50
2019-01-26T02:00:02.165Z,64.60
2019-01-26T02:03:06.992Z,64.80
2019-01-26T02:06:11.818Z,64.40
2019-01-26T02:09:19.431Z,64.30
2019-01-26T02:12:24.297Z,63.10
2019-01-26T02:15:29.145Z,64.40
2019-01-26T02:18:34.021Z,64.40
2019-01-26T02:21:38.941Z,64.40
2019-01-26T02:24:43.813Z,64.60
2019-01-26T02:27:48.707Z,63.90
2019-01-26T02:30:53.619Z,65.10
2019-01-26T02:33:58.511Z,65.10
2019-01-26T02:37:03.371Z,65.10
2019-01-26T02:40:11.059Z,66.30
2019-01-26T02:43:15.889Z,66.30
2019-01-26T02:46:20.749Z,66.50
2019-01-26T02:49:25.906Z,68.60
2019-01-26T02:52:30.769Z,67.60
2019-01-26T02:55:35.684Z,68.50
2019-01-26T02:58:40.586Z,68.90
2019-01-26T03:01:46.582Z,68.60
2019-01-26T03:04:51.427Z,69.30
2019-01-26T03:07:56.280Z,68.60
2019-01-26T03:11:01.245Z,68.60
2019-01-26T03:14:06.236Z,68.40
2019-01-26T03:17:11.054Z,68.70
2019-01-26T03:20:17.153Z,69.20
2019-01-26T03:23:22.837Z,70.20
2019-01-26T03:26:27.702Z,71.30
2019-01-26T03:29:32.615Z,70.90
2019-01-26T03:32:37.534Z,70.80
2019-01-26T03:35:42.440Z,71.10
2019-01-26T03:38:47.399Z,70.60
2019-01-26T03:41:52.249Z,71.60
2019-01-26T03:44:57.094Z,71.30
2019-01-26T03:48:01.953Z,70.30
2019-01-26T03:51:06.928Z,70.60
2019-01-26T03:54:11.859Z,70.00
2019-01-26T03:57:16.819Z,69.90
2019-01-26T04:00:24.703Z,70.60
2019-01-26T04:03:29.636Z,71.40
2019-01-26T04:06:35.488Z,72.10
2019-01-26T04:09:40.427Z,71.60
2019-01-26T04:12:45.658Z,71.80
2019-01-26T04:15:50.563Z,71.70
2019-01-26T04:18:55.418Z,72.00
2019-01-26T04:22:00.314Z,71.50
2019-01-26T04:25:06.537Z,71.90
2019-01-26T04:28:13.054Z,71.50
2019-01-26T04:31:17.986Z,72.00
2019-01-26T04:34:22.856Z,71.70
2019-01-26T04:37:27.780Z,71.90
2019-01-26T04:40:32.651Z,71.90
2019-01-26T04:43:37.594Z,72.50
2019-01-26T04:46:42.457Z,72.50
2019-01-26T04:49:47.301Z,72.80
2019-01-26T04:52:52.180Z,72.80
2019-01-26T04:55:57.051Z,73.00
2019-01-26T04:59:01.970Z,72.60
2019-01-26T05:02:06.837Z,72.80
2019-01-26T05:05:11.660Z,73.00
2019-01-26T05:08:16.863Z,73.10
2019-01-26T05:11:22.879Z,73.40
2019-01-26T05:14:27.710Z,73.60
2019-01-26T05:17:39.277Z,73.30
2019-01-26T05:20:39.154Z,73.10
2019-01-26T05:23:44.133Z,73.20
2019-01-26T05:26:48.995Z,73.10
2019-01-26T05:29:53.940Z,73.40
2019-01-26T05:32:58.852Z,73.50
2019-01-26T05:36:03.859Z,72.00
2019-01-26T05:39:08.696Z,73.20
2019-01-26T05:42:13.566Z,73.10
2019-01-26T05:45:20.509Z,73.60
2019-01-26T05:48:25.462Z,73.90
2019-01-26T05:51:30.281Z,73.70
2019-01-26T05:54:35.157Z,73.80
2019-01-26T05:57:40.095Z,73.80
2019-01-26T06:00:44.943Z,74.30
2019-01-26T06:03:50.705Z,73.80
2019-01-26T06:06:55.531Z,74.50
2019-01-26T06:10:00.446Z,74.30
2019-01-26T06:13:05.346Z,74.80
2019-01-26T06:16:10.202Z,75.50
2019-01-26T06:19:15.074Z,75.50
2019-01-26T06:22:19.962Z,75.20
2019-01-26T06:25:24.875Z,75.40
2019-01-26T06:28:29.736Z,75.70
2019-01-26T06:31:34.553Z,75.60
2019-01-26T06:34:39.377Z,75.50
2019-01-26T06:37:44.268Z,75.70
2019-01-26T06:40:49.162Z,75.50
2019-01-26T06:43:54.079Z,75.60
2019-01-26T06:46:58.937Z,76.00
2019-01-26T06:50:05.823Z,76.30
2019-01-26T06:53:10.697Z,76.40
2019-01-26T06:56:15.528Z,76.50
2019-01-26T06:59:20.373Z,76.80
2019-01-26T07:02:25.459Z,76.60
2019-01-26T07:05:47.338Z,76.90
2019-01-26T07:08:52.205Z,77.30
2019-01-26T07:11:57.094Z,77.80
2019-01-26T07:15:01.954Z,78.40
2019-01-26T07:18:09.649Z,78.40
2019-01-26T07:21:13.404Z,78.50
2019-01-26T07:24:18.251Z,78.60
2019-01-26T07:27:23.078Z,78.30
2019-01-26T07:30:28.177Z,79.00
2019-01-26T07:33:32.997Z,79.10
2019-01-26T07:36:37.842Z,79.70
2019-01-26T07:39:42.731Z,79.30
2019-01-26T07:42:47.558Z,79.70
2019-01-26T07:45:52.408Z,80.20
2019-01-26T07:48:57.234Z,80.40
2019-01-26T07:52:02.130Z,80.60
2019-01-26T07:55:09.592Z,81.00
2019-01-26T07:58:14.483Z,80.90
2019-01-26T08:01:19.478Z,80.70
2019-01-26T08:04:24.402Z,81.30
2019-01-26T08:07:29.219Z,81.00
2019-01-26T08:10:34.257Z,80.80
2019-01-26T08:13:39.082Z,80.90
2019-01-26T08:16:43.910Z,80.80
2019-01-26T08:19:48.758Z,81.10
2019-01-26T08:22:53.653Z,81.10
2019-01-26T08:25:58.511Z,81.30
2019-01-26T08:29:04.795Z,81.10
2019-01-26T08:32:09.681Z,81.60
2019-01-26T08:35:14.527Z,81.20
2019-01-26T08:38:19.449Z,81.60
2019-01-26T08:41:24.283Z,81.80
2019-01-26T08:44:29.111Z,81.60
2019-01-26T08:47:33.962Z,81.70
2019-01-26T08:50:38.820Z,82.00
2019-01-26T08:53:43.700Z,82.00
2019-01-26T08:56:48.576Z,82.10
2019-01-26T08:59:53.380Z,82.10
2019-01-26T09:02:59.881Z,82.20
2019-01-26T09:06:06.526Z,82.40
2019-01-26T09:09:11.453Z,82.10
2019-01-26T09:12:16.291Z,83.00
2019-01-26T09:15:22.019Z,82.20
2019-01-26T09:18:26.874Z,82.60
2019-01-26T09:21:31.702Z,82.30
2019-01-26T09:24:36.536Z,82.20
2019-01-26T09:27:41.754Z,82.30
2019-01-26T09:30:46.600Z,82.30
2019-01-26T09:33:51.552Z,82.20
2019-01-26T09:36:56.407Z,82.30
2019-01-26T09:40:01.219Z,82.40
2019-01-26T09:43:06.925Z,82.20
2019-01-26T09:46:11.795Z,82.10
2019-01-26T09:49:17.499Z,82.00
2019-01-26T09:52:22.338Z,82.50
2019-01-26T09:55:28.074Z,82.10
2019-01-26T09:58:32.938Z,82.60
2019-01-26T10:01:37.904Z,82.50
2019-01-26T10:04:42.763Z,82.70
2019-01-26T10:07:47.978Z,82.80
2019-01-26T10:10:52.839Z,82.80
2019-01-26T10:13:57.679Z,82.70
2019-01-26T10:17:02.546Z,83.30
2019-01-26T10:20:13.165Z,82.60
2019-01-26T10:23:18.034Z,82.60
2019-01-26T10:26:22.978Z,82.20
2019-01-26T10:29:27.821Z,82.30
2019-01-26T10:32:32.677Z,81.90
2019-01-26T10:35:41.958Z,81.80
2019-01-26T10:38:48.494Z,81.80
2019-01-26T10:41:55.034Z,81.60
2019-01-26T10:44:59.879Z,81.30
2019-01-26T10:48:05.018Z,81.40
2019-01-26T10:51:09.869Z,81.40
2019-01-26T10:54:14.716Z,81.20
2019-01-26T10:57:19.542Z,81.00
2019-01-26T11:00:24.648Z,80.90
2019-01-26T11:03:29.560Z,80.60
2019-01-26T11:06:34.379Z,80.20
2019-01-26T11:09:39.250Z,79.90
2019-01-26T11:12:44.261Z,79.60
2019-01-26T11:15:49.120Z,79.10
2019-01-26T11:18:53.979Z,78.90
2019-01-26T11:21:58.986Z,78.40
2019-01-26T11:25:06.123Z,78.40
2019-01-26T11:28:10.933Z,78.40
2019-01-26T11:31:16.046Z,78.50
2019-01-26T11:34:20.870Z,78.60
2019-01-26T11:37:25.758Z,77.80
2019-01-26T11:40:30.650Z,77.30
2019-01-26T11:43:35.694Z,76.90
2019-01-26T11:46:40.522Z,76.40
2019-01-26T11:49:47.994Z,76.30
2019-01-26T11:52:52.966Z,75.50
2019-01-26T11:56:00.353Z,76.30
2019-01-26T11:59:06.199Z,75.80
2019-01-26T12:02:14.661Z,75.70
2019-01-26T12:05:21.220Z,75.60
2019-01-26T12:08:26.158Z,75.40
2019-01-26T12:11:30.997Z,75.30
2019-01-26T12:14:36.851Z,74.50
2019-01-26T12:17:41.707Z,74.60
2019-01-26T12:20:46.625Z,74.60
2019-01-26T12:23:51.449Z,74.20
2019-01-26T12:26:56.322Z,73.70
2019-01-26T12:30:01.143Z,73.90
2019-01-26T12:33:05.974Z,73.60
2019-01-26T12:36:10.831Z,74.30
2019-01-26T12:39:15.759Z,74.30
2019-01-26T12:42:20.635Z,74.40
2019-01-26T12:45:25.437Z,74.80
2019-01-26T12:48:31.093Z,74.80
2019-01-26T12:51:35.960Z,74.50
2019-01-26T12:54:40.912Z,74.80
2019-01-26T12:57:45.809Z,74.80
2019-01-26T13:00:51.534Z,74.20
2019-01-26T13:03:56.467Z,74.20
2019-01-26T13:07:01.844Z,74.30
2019-01-26T13:10:15.673Z,74.30
2019-01-26T13:13:20.633Z,74.40
2019-01-26T13:16:25.831Z,74.80
2019-01-26T13:19:36.794Z,74.00
2019-01-26T13:22:37.181Z,73.30
2019-01-26T13:25:42.229Z,73.80
2019-01-26T13:28:47.037Z,73.10
2019-01-26T13:31:51.996Z,73.00
2019-01-26T13:34:56.853Z,72.50
2019-01-26T13:38:02.754Z,73.80
2019-01-26T13:41:07.606Z,73.90
2019-01-26T13:44:12.489Z,74.30
2019-01-26T13:47:17.338Z,73.50
2019-01-26T13:50:22.278Z,74.30
2019-01-26T13:53:27.358Z,74.00
2019-01-26T13:56:32.207Z,74.60
2019-01-26T13:59:37.041Z,75.00
2019-01-26T14:02:41.937Z,74.30
2019-01-26T14:05:46.762Z,74.20
2019-01-26T14:08:51.613Z,74.30
2019-01-26T14:11:56.529Z,74.00
2019-01-26T14:15:01.420Z,74.50
2019-01-26T14:18:06.516Z,73.80
2019-01-26T14:21:11.365Z,73.20
2019-01-26T14:24:16.279Z,73.80
2019-01-26T14:27:21.131Z,74.00
2019-01-26T14:30:31.750Z,73.50
2019-01-26T14:33:36.651Z,73.50
2019-01-26T14:36:41.558Z,73.50
2019-01-26T14:39:46.388Z,73.90
2019-01-26T14:42:54.393Z,73.60
2019-01-26T14:45:57.935Z,74.10
2019-01-26T14:49:02.742Z,73.20
2019-01-26T14:52:07.698Z,72.60
2019-01-26T14:55:18.358Z,73.20
2019-01-26T14:58:23.205Z,73.00
2019-01-26T15:01:28.139Z,73.90
2019-01-26T15:04:33.053Z,73.60
2019-01-26T15:07:37.989Z,74.30
2019-01-26T15:10:42.877Z,74.00
2019-01-26T15:13:47.702Z,74.50
2019-01-26T15:16:53.527Z,74.40
2019-01-26T15:20:05.434Z,74.30
2019-01-26T15:23:06.555Z,74.60
2019-01-26T15:26:11.439Z,74.70
2019-01-26T15:29:16.288Z,75.50
2019-01-26T15:32:21.132Z,75.10
2019-01-26T15:35:25.949Z,75.00
2019-01-26T15:38:30.806Z,75.10
2019-01-26T15:41:35.720Z,75.20
2019-01-26T15:44:41.120Z,75.20
2019-01-26T15:47:45.977Z,75.30
2019-01-26T15:50:50.862Z,75.60
2019-01-26T15:53:55.700Z,76.10
2019-01-26T15:57:01.450Z,76.20
2019-01-26T16:00:09.456Z,76.10
2019-01-26T16:03:14.361Z,76.60
2019-01-26T16:06:19.172Z,77.20
2019-01-26T16:09:24.066Z,77.80
2019-01-26T16:12:28.950Z,77.90
2019-01-26T16:15:36.197Z,76.90
2019-01-26T16:18:41.065Z,77.30
2019-01-26T16:21:45.873Z,77.50
2019-01-26T16:24:50.800Z,78.00
2019-01-26T16:27:55.683Z,77.80
2019-01-26T16:31:00.511Z,78.20
2019-01-26T16:34:05.383Z,78.10
2019-01-26T16:37:10.305Z,77.60
2019-01-26T16:40:18.139Z,77.90
2019-01-26T16:43:22.995Z,78.10
2019-01-26T16:46:27.859Z,78.00
2019-01-26T16:49:32.823Z,78.60
2019-01-26T16:52:37.741Z,78.90
2019-01-26T16:55:42.618Z,78.80
2019-01-26T16:58:47.528Z,78.60
2019-01-26T17:01:52.498Z,78.00
2019-01-26T17:04:57.345Z,78.20
2019-01-26T17:08:02.261Z,78.90
2019-01-26T17:11:07.115Z,79.00
2019-01-26T17:14:12.030Z,79.30
2019-01-26T17:17:17.895Z,78.80
2019-01-26T17:20:34.590Z,78.50
2019-01-26T17:23:34.379Z,77.90
2019-01-26T17:26:39.229Z,78.10
2019-01-26T17:29:44.103Z,78.30
2019-01-26T17:32:49.012Z,78.10
2019-01-26T17:35:53.871Z,78.90
2019-01-26T17:38:58.733Z,78.80
2019-01-26T17:42:03.634Z,79.00
2019-01-26T17:45:10.616Z,79.80
2019-01-26T17:48:15.546Z,79.40
2019-01-26T17:51:20.469Z,79.10
2019-01-26T17:54:25.333Z,79.20
2019-01-26T17:57:30.237Z,79.20
2019-01-26T18:00:52.209Z,79.30
2019-01-26T18:03:57.095Z,78.80
2019-01-26T18:07:01.985Z,78.80
2019-01-26T18:10:18.518Z,79.10
2019-01-26T18:13:23.493Z,79.30
2019-01-26T18:16:28.359Z,79.30
2019-01-26T18:19:33.277Z,79.40
2019-01-26T18:22:38.161Z,79.30
2019-01-26T18:25:43.198Z,79.70
2019-01-26T18:28:48.153Z,79.60
2019-01-26T18:31:53.042Z,79.50
2019-01-26T18:34:57.881Z,79.70
2019-01-26T18:38:02.762Z,79.60
2019-01-26T18:41:07.606Z,80.00
2019-01-26T18:44:12.637Z,80.20
2019-01-26T18:47:17.485Z,80.30
2019-01-26T18:50:33.658Z,80.30
2019-01-26T18:53:38.533Z,80.60
2019-01-26T18:56:44.410Z,80.60
2019-01-26T18:59:50.337Z,80.60
2019-01-26T19:02:58.820Z,80.30
2019-01-26T19:06:06.150Z,80.40
2019-01-26T19:09:11.053Z,80.30
2019-01-26T19:12:15.910Z,80.40
2019-01-26T19:15:24.123Z,80.40
2019-01-26T19:18:29.004Z,80.10
2019-01-26T19:21:33.899Z,80.20
2019-01-26T19:24:38.753Z,80.10
2019-01-26T19:27:43.695Z,80.30
2019-01-26T19:30:48.519Z,79.90
2019-01-26T19:33:53.462Z,79.80
2019-01-26T19:36:58.269Z,80.10
2019-01-26T19:40:03.980Z,80.40
2019-01-26T19:43:09.694Z,80.20
2019-01-26T19:46:14.726Z,80.20
2019-01-26T19:49:19.637Z,80.40
2019-01-26T19:52:24.577Z,80.50
2019-01-26T19:55:29.561Z,80.70
2019-01-26T19:58:34.426Z,80.80
2019-01-26T20:01:39.249Z,80.60
2019-01-26T20:04:44.217Z,80.60
2019-01-26T20:07:49.098Z,80.70
2019-01-26T20:10:54.885Z,80.80
2019-01-26T20:14:00.288Z,80.70
2019-01-26T20:17:05.262Z,81.00
2019-01-26T20:20:15.883Z,81.70
2019-01-26T20:23:20.750Z,81.20
2019-01-26T20:26:25.670Z,81.10
2019-01-26T20:29:30.581Z,81.30
2019-01-26T20:32:35.424Z,81.20
2019-01-26T20:35:40.292Z,81.20
2019-01-26T20:38:45.588Z,81.20
2019-01-26T20:41:50.673Z,81.50
2019-01-26T20:44:56.598Z,82.10
2019-01-26T20:48:01.482Z,81.10
2019-01-26T20:51:07.750Z,81.50
2019-01-26T20:54:12.597Z,81.50
2019-01-26T20:57:17.742Z,81.40
2019-01-26T21:00:27.375Z,81.70
2019-01-26T21:03:32.431Z,81.70
2019-01-26T21:06:37.801Z,81.90
2019-01-26T21:09:43.644Z,82.20
2019-01-26T21:12:48.978Z,82.40
2019-01-26T21:15:53.804Z,82.70
2019-01-26T21:18:58.672Z,82.90
2019-01-26T21:22:04.049Z,83.20
2019-01-26T21:25:11.592Z,82.30
2019-01-26T21:28:16.418Z,82.90
2019-01-26T21:31:21.292Z,83.90
2019-01-26T21:34:28.074Z,83.40
2019-01-26T21:37:33.047Z,83.30
2019-01-26T21:40:37.891Z,83.50
2019-01-26T21:43:43.004Z,83.50
2019-01-26T21:46:48.042Z,83.40
2019-01-26T21:49:53.011Z,83.30
2019-01-26T21:52:58.015Z,82.70
2019-01-26T21:56:03.473Z,83.40
2019-01-26T21:59:08.349Z,83.40
2019-01-26T22:02:17.309Z,83.50
2019-01-26T22:05:22.413Z,83.50
2019-01-26T22:08:27.857Z,83.80
2019-01-26T22:11:33.050Z,83.60
2019-01-26T22:14:38.068Z,84.30
2019-01-26T22:17:43.693Z,84.20
2019-01-26T22:20:48.784Z,84.30
2019-01-26T22:23:53.901Z,84.00
2019-01-26T22:27:00.101Z,84.60
2019-01-26T22:30:17.149Z,84.40
2019-01-26T22:33:22.462Z,84.50
2019-01-26T22:36:27.632Z,84.50
2019-01-26T22:39:32.630Z,84.50
2019-01-26T22:42:37.763Z,84.40
2019-01-26T22:45:42.680Z,84.30
2019-01-26T22:48:47.827Z,83.70
2019-01-26T22:51:53.398Z,84.10
2019-01-26T22:54:58.588Z,83.50
2019-01-26T22:58:03.925Z,83.50
2019-01-26T23:01:11.855Z,82.70
2019-01-26T23:04:28.493Z,82.90
2019-01-26T23:07:33.551Z,82.60
2019-01-26T23:11:05.566Z,82.10
2019-01-26T23:14:19.396Z,81.50
2019-01-26T23:17:36.230Z,81.60
2019-01-26T23:20:53.073Z,81.30
2019-01-26T23:24:07.180Z,81.70
2019-01-26T23:27:24.120Z,81.80
2019-01-26T23:30:46.630Z,81.60
2019-01-26T23:34:10.826Z,81.50
2019-01-26T23:37:15.706Z,80.50
2019-01-26T23:40:20.723Z,81.00
2019-01-26T23:43:25.683Z,81.30
2019-01-26T23:46:30.514Z,80.60
2019-01-26T23:49:35.405Z,80.60
2019-01-26T23:52:40.322Z,79.80
2019-01-26T23:55:45.151Z,80.10
2019-01-26T23:58:49.994Z,79.40
